Terminal Aerodrome Forecast
Issued by NWS Northern Indiana

Home | Current Version | Previous Version | Text Only | Print | Product List | Glossary On
Versions: 1 2 3 4 5 6 7 8 9 10 11 12 13
000
FTUS43 KIWX 271700
TAFFWA
TAF
KFWA 271732Z 2718/2818 04007KT P6SM FEW030 SCT060
     FM280000 VRB03KT P6SM SKC
     FM281500 13006KT P6SM SCT150=

USA.gov is the U.S. government's official web portal to all federal, state and local government web resources and services.